Time;durP1;ratioP1;P1;durP2;ratioP2;P2;SDS_P1;SDS_P2;PMS_P1;PMS_P2;Temp;Humidity;BMP_temperature;BMP_pressure;BME280_temperature;BME280_humidity;BME280_pressure;Samples;Min_cycle;Max_cycle;Signal;HPM_P1;HPM_P2
2022/04/09 00:00:43;;;;;;;4.35;0.90;;;6.10;99.90;;;;;;4988928;28;20046;-85
2022/04/09 00:03:09;;;;;;;8.98;1.50;;;4.10;99.90;;;;;;4989941;28;20082;-86
2022/04/09 00:05:35;;;;;;;10.05;1.35;;;4.20;99.90;;;;;;4982935;28;20580;-85
2022/04/09 00:08:00;;;;;;;15.48;1.52;;;4.20;99.90;;;;;;4981894;28;20370;-87
2022/04/09 00:10:26;;;;;;;9.57;1.20;;;6.60;99.90;;;;;;4989312;28;20030;-88
2022/04/09 00:12:52;;;;;;;9.73;0.90;;;5.80;99.90;;;;;;4990569;28;20105;-88
2022/04/09 00:15:17;;;;;;;10.25;1.10;;;4.10;99.90;;;;;;4986265;28;20121;-87
2022/04/09 00:17:44;;;;;;;18.20;1.42;;;4.10;99.90;;;;;;4983735;28;20038;-84
2022/04/09 00:20:11;;;;;;;10.50;1.20;;;4.10;99.90;;;;;;4986980;28;20659;-87
2022/04/09 00:22:38;;;;;;;10.15;1.42;;;6.10;99.90;;;;;;4978918;28;20502;-87
2022/04/09 00:25:06;;;;;;;7.07;0.90;;;5.00;99.90;;;;;;4985438;28;20118;-87
2022/04/09 00:27:31;;;;;;;8.65;2.30;;;4.20;99.90;;;;;;4988053;28;20468;-85
2022/04/09 00:29:57;;;;;;;6.75;0.88;;;3.50;99.90;;;;;;4982852;28;20042;-87
2022/04/09 00:32:23;;;;;;;4.53;0.50;;;4.20;99.90;;;;;;4985597;28;20042;-87
2022/04/09 00:34:48;;;;;;;5.63;0.85;;;4.20;99.90;;;;;;4986190;28;20049;-87
2022/04/09 00:37:14;;;;;;;4.47;0.82;;;4.20;99.90;;;;;;4986809;28;20652;-88
2022/04/09 00:39:40;;;;;;;8.25;0.70;;;4.30;99.90;;;;;;4986400;28;20050;-88
2022/04/09 00:42:12;;;;;;;2.60;0.47;;;4.20;99.90;;;;;;4986298;28;20125;-87
2022/04/09 00:44:38;;;;;;;5.30;0.50;;;4.20;99.90;;;;;;4986064;28;20076;-88
2022/04/09 00:47:04;;;;;;;2.00;0.22;;;5.50;99.90;;;;;;4988213;28;20074;-90
2022/04/09 00:49:30;;;;;;;1.42;0.40;;;4.40;99.90;;;;;;4971881;28;20389;-91
2022/04/09 00:51:56;;;;;;;2.28;0.40;;;3.50;99.90;;;;;;4984453;28;20038;-90
2022/04/09 00:54:24;;;;;;;3.05;0.47;;;5.50;99.90;;;;;;4986046;28;20124;-90
2022/04/09 00:56:51;;;;;;;3.60;0.50;;;3.70;99.90;;;;;;4985233;28;20475;-88
2022/04/09 00:59:23;;;;;;;3.15;0.40;;;4.00;99.90;;;;;;4985705;28;20046;-90
2022/04/09 01:01:51;;;;;;;7.05;0.65;;;3.80;99.90;;;;;;4985043;28;20494;-89
2022/04/09 01:04:17;;;;;;;4.68;0.52;;;3.80;99.90;;;;;;4985032;28;20053;-88
2022/04/09 01:06:43;;;;;;;4.50;0.30;;;3.90;99.90;;;;;;4986372;28;20475;-86
2022/04/09 01:09:08;;;;;;;4.68;0.43;;;3.90;99.90;;;;;;4965429;28;20057;-89
2022/04/09 01:11:34;;;;;;;7.80;0.70;;;4.00;99.90;;;;;;4961257;28;20355;-88
2022/04/09 01:14:00;;;;;;;4.30;0.70;;;2.60;99.90;;;;;;4987223;28;20422;-90
2022/04/09 01:16:28;;;;;;;8.45;1.00;;;3.80;99.90;;;;;;4986697;28;20093;-88
2022/04/09 01:18:55;;;;;;;5.38;0.60;;;3.50;99.90;;;;;;4982254;28;20490;-87
2022/04/09 01:21:24;;;;;;;9.85;0.63;;;4.90;99.90;;;;;;4970291;28;20054;-86
2022/04/09 01:23:50;;;;;;;11.88;0.68;;;5.80;99.90;;;;;;4983974;28;20047;-89
2022/04/09 01:26:15;;;;;;;4.45;0.60;;;3.50;99.90;;;;;;4987773;28;20088;-89
2022/04/09 01:28:42;;;;;;;12.57;1.80;;;3.70;99.90;;;;;;4986583;28;20124;-87
2022/04/09 01:31:08;;;;;;;4.82;0.60;;;5.40;99.90;;;;;;4961449;28;20052;-89
2022/04/09 01:33:33;;;;;;;8.80;0.88;;;3.70;99.90;;;;;;4981730;28;20050;-89
2022/04/09 01:35:59;;;;;;;8.50;0.90;;;3.60;99.90;;;;;;4983465;28;20034;-83
2022/04/09 01:38:24;;;;;;;5.68;1.02;;;4.90;99.90;;;;;;4985709;28;20035;-86
2022/04/09 01:40:50;;;;;;;9.10;0.95;;;3.70;99.90;;;;;;4969685;28;20085;-89
2022/04/09 01:43:17;;;;;;;5.60;0.93;;;3.60;99.90;;;;;;4978637;28;20054;-87
2022/04/09 01:45:42;;;;;;;10.23;1.77;;;3.70;99.90;;;;;;4986319;28;20246;-86
2022/04/09 01:48:08;;;;;;;7.38;0.93;;;3.50;99.90;;;;;;4984168;28;20042;-87
2022/04/09 01:50:34;;;;;;;8.52;1.10;;;3.60;99.90;;;;;;4986476;28;20042;-86
2022/04/09 01:52:59;;;;;;;8.90;1.08;;;3.80;99.90;;;;;;4969882;28;20043;-85
2022/04/09 01:55:26;;;;;;;11.40;1.08;;;3.70;99.90;;;;;;4977873;28;20081;-86
2022/04/09 01:57:52;;;;;;;7.03;1.55;;;3.80;99.90;;;;;;4985803;28;20038;-86
2022/04/09 02:00:18;;;;;;;8.05;1.20;;;3.70;99.90;;;;;;4986909;28;20402;-88
2022/04/09 02:02:45;;;;;;;9.02;0.70;;;3.60;99.90;;;;;;4964518;28;20050;-79
2022/04/09 02:05:12;;;;;;;8.50;1.08;;;3.90;99.90;;;;;;4984830;28;20042;-88
2022/04/09 02:07:38;;;;;;;6.72;0.77;;;3.60;99.90;;;;;;4961254;28;20039;-86
2022/04/09 02:10:05;;;;;;;9.18;1.40;;;3.60;99.90;;;;;;4987171;28;20057;-80
2022/04/09 02:12:32;;;;;;;12.35;1.15;;;3.70;99.90;;;;;;4981024;28;20077;-86
2022/04/09 02:15:00;;;;;;;7.70;1.05;;;4.70;99.90;;;;;;5001297;28;20050;-89
2022/04/09 02:17:25;;;;;;;22.38;2.17;;;2.90;99.90;;;;;;4970344;28;20038;-89
2022/04/09 02:19:51;;;;;;;13.57;1.17;;;3.70;99.90;;;;;;4965792;28;20053;-88
2022/04/09 02:22:18;;;;;;;9.25;1.00;;;3.60;99.90;;;;;;4966089;28;20510;-87
2022/04/09 02:24:44;;;;;;;9.40;1.58;;;3.40;99.90;;;;;;4984245;28;20057;-84
2022/04/09 02:27:10;;;;;;;8.20;0.98;;;3.30;99.90;;;;;;4984115;28;20500;-86
2022/04/09 02:29:36;;;;;;;6.03;1.23;;;3.50;99.90;;;;;;4964642;28;20042;-87
2022/04/09 02:32:03;;;;;;;6.85;1.10;;;3.30;99.90;;;;;;4982861;28;20096;-87
2022/04/09 02:34:29;;;;;;;9.90;0.80;;;5.10;99.90;;;;;;4983810;28;20066;-88
2022/04/09 02:36:54;;;;;;;7.25;0.82;;;3.40;99.90;;;;;;4983649;28;20069;-88
2022/04/09 02:39:21;;;;;;;9.63;1.25;;;3.50;99.90;;;;;;4984411;28;20577;-87
2022/04/09 02:41:51;;;;;;;4.60;0.80;;;3.40;99.90;;;;;;4984325;28;20137;-84
2022/04/09 02:44:17;;;;;;;17.92;1.40;;;3.50;99.90;;;;;;4967165;28;20038;-86
2022/04/09 02:46:44;;;;;;;8.10;0.60;;;3.40;99.90;;;;;;4984064;28;20034;-86
2022/04/09 02:49:09;;;;;;;13.23;1.15;;;3.00;99.90;;;;;;4983359;28;20133;-87
2022/04/09 02:51:35;;;;;;;10.48;0.93;;;3.30;99.90;;;;;;4976687;28;20114;-86
2022/04/09 02:54:01;;;;;;;8.15;1.10;;;3.40;99.90;;;;;;4981515;28;20303;-86
2022/04/09 02:56:26;;;;;;;9.63;1.13;;;3.40;99.90;;;;;;4983249;28;20042;-89
2022/04/09 02:58:52;;;;;;;10.45;1.08;;;3.40;99.90;;;;;;4968775;28;20038;-84
2022/04/09 03:01:17;;;;;;;9.00;0.88;;;5.70;99.90;;;;;;4982613;28;20042;-85
2022/04/09 03:03:43;;;;;;;9.15;1.08;;;3.30;99.90;;;;;;4990589;28;20042;-84
2022/04/09 03:06:08;;;;;;;17.05;1.48;;;2.90;99.90;;;;;;4982889;28;20061;-87
2022/04/09 03:08:34;;;;;;;6.60;1.17;;;3.80;99.90;;;;;;4989557;28;20050;-88
2022/04/09 03:11:00;;;;;;;10.02;0.80;;;5.10;99.90;;;;;;4969856;28;20038;-86
2022/04/09 03:13:25;;;;;;;9.73;1.20;;;3.30;99.90;;;;;;4983754;28;20275;-84
2022/04/09 03:15:51;;;;;;;7.85;0.85;;;3.30;99.90;;;;;;4982297;28;20125;-83
2022/04/09 03:18:16;;;;;;;12.48;1.42;;;3.40;99.90;;;;;;4987467;28;20509;-88
2022/04/09 03:20:42;;;;;;;7.03;1.08;;;3.40;99.90;;;;;;4974187;28;20050;-90
2022/04/09 03:23:07;;;;;;;6.35;1.02;;;4.00;99.90;;;;;;4984911;28;20042;-87
2022/04/09 03:25:33;;;;;;;7.28;0.98;;;3.30;99.90;;;;;;4984168;28;20050;-83
2022/04/09 03:27:59;;;;;;;14.13;1.77;;;3.40;99.90;;;;;;4989508;28;20495;-78
2022/04/09 03:30:24;;;;;;;8.00;1.23;;;3.00;99.90;;;;;;4987625;28;20039;-84
2022/04/09 03:32:50;;;;;;;8.50;0.82;;;3.50;99.90;;;;;;4968467;28;20495;-86
2022/04/09 03:35:16;;;;;;;10.18;1.20;;;3.50;99.90;;;;;;4988679;28;20042;-87
2022/04/09 03:37:42;;;;;;;18.20;1.25;;;3.40;99.90;;;;;;4983693;28;20038;-86
2022/04/09 03:40:09;;;;;;;6.95;1.35;;;3.40;99.90;;;;;;4987650;28;20142;-86
2022/04/09 03:42:35;;;;;;;6.20;1.35;;;2.40;99.90;;;;;;4970906;28;20108;-87
2022/04/09 03:45:00;;;;;;;4.05;0.60;;;5.40;99.90;;;;;;4985331;28;20046;-85
2022/04/09 03:47:26;;;;;;;8.68;0.98;;;3.40;99.90;;;;;;4989602;28;20037;-87
2022/04/09 03:49:52;;;;;;;7.55;0.85;;;5.10;99.90;;;;;;4986355;28;20052;-87
2022/04/09 03:52:17;;;;;;;8.65;0.60;;;3.10;99.90;;;;;;4983550;28;20549;-87
2022/04/09 03:54:43;;;;;;;14.80;1.83;;;3.40;99.90;;;;;;4989079;28;20065;-86
2022/04/09 03:57:11;;;;;;;12.15;0.63;;;3.40;99.90;;;;;;4988630;28;20089;-84
2022/04/09 03:59:37;;;;;;;10.05;0.95;;;3.40;99.90;;;;;;4987074;28;20053;-85
2022/04/09 04:02:05;;;;;;;7.65;0.60;;;3.20;99.90;;;;;;4977064;28;20317;-82
2022/04/09 04:04:31;;;;;;;5.88;1.23;;;3.30;99.90;;;;;;4981233;28;20046;-87
2022/04/09 04:06:57;;;;;;;5.40;0.50;;;3.30;99.90;;;;;;4987972;28;20454;-85
2022/04/09 04:09:22;;;;;;;5.85;1.00;;;3.30;99.90;;;;;;4988755;28;20054;-85
2022/04/09 04:11:48;;;;;;;8.45;0.60;;;3.30;99.90;;;;;;4966423;28;20043;-86
2022/04/09 04:14:14;;;;;;;6.00;0.68;;;3.30;99.90;;;;;;4984585;28;20053;-86
2022/04/09 04:16:39;;;;;;;4.00;0.40;;;3.30;99.90;;;;;;4987844;28;20038;-86
2022/04/09 04:19:05;;;;;;;6.78;0.70;;;3.30;99.90;;;;;;4972046;28;20494;-83
2022/04/09 04:21:31;;;;;;;4.15;0.70;;;3.20;99.90;;;;;;4985167;28;20062;-86
2022/04/09 04:23:57;;;;;;;8.05;0.80;;;4.60;99.90;;;;;;4981529;28;20050;-85
2022/04/09 04:26:22;;;;;;;1.83;0.43;;;3.30;99.90;;;;;;4985393;28;20506;-82
2022/04/09 04:28:48;;;;;;;6.80;0.70;;;3.70;99.90;;;;;;4963266;28;20050;-87
2022/04/09 04:31:21;;;;;;;4.72;1.05;;;5.30;99.90;;;;;;4978530;28;20098;-84
2022/04/09 04:33:46;;;;;;;6.57;0.65;;;3.20;99.90;;;;;;4984980;28;20042;-86
2022/04/09 04:36:12;;;;;;;5.47;1.10;;;3.30;99.90;;;;;;4987839;28;20057;-83
2022/04/09 04:38:39;;;;;;;11.25;0.60;;;3.30;99.90;;;;;;4989452;28;20034;-85
2022/04/09 04:41:05;;;;;;;6.93;0.88;;;3.30;99.90;;;;;;4988608;28;20109;-85
2022/04/09 04:43:32;;;;;;;3.72;0.47;;;4.80;99.90;;;;;;4980132;28;20486;-87
2022/04/09 04:45:58;;;;;;;6.65;0.65;;;3.40;99.90;;;;;;4987113;28;20505;-87
2022/04/09 04:48:24;;;;;;;7.38;0.75;;;3.40;99.90;;;;;;4986410;28;20038;-87
2022/04/09 04:50:49;;;;;;;9.52;1.30;;;3.10;99.90;;;;;;4981611;28;20043;-87
2022/04/09 04:53:15;;;;;;;3.42;0.40;;;3.30;99.90;;;;;;4985802;28;20049;-82
2022/04/09 04:55:41;;;;;;;4.10;0.68;;;3.50;99.90;;;;;;4984945;28;20097;-84
2022/04/09 04:58:07;;;;;;;2.97;0.60;;;3.40;99.90;;;;;;4985322;28;20043;-86
2022/04/09 05:00:33;;;;;;;3.05;0.30;;;3.30;99.90;;;;;;4986403;28;20109;-87
2022/04/09 05:02:59;;;;;;;6.50;0.52;;;2.90;99.90;;;;;;4971447;28;20034;-82
2022/04/09 05:05:25;;;;;;;8.13;0.85;;;4.10;99.90;;;;;;4984896;28;20051;-86
2022/04/09 05:07:52;;;;;;;6.70;0.82;;;3.20;99.90;;;;;;4981358;28;20054;-86
2022/04/09 05:10:21;;;;;;;8.07;0.98;;;3.10;99.90;;;;;;4980517;28;20151;-85
2022/04/09 05:12:48;;;;;;;8.95;2.08;;;4.10;99.90;;;;;;4983523;28;20042;-87
2022/04/09 05:15:15;;;;;;;6.47;0.82;;;3.20;99.90;;;;;;4973420;28;20039;-86
2022/04/09 05:17:42;;;;;;;8.60;0.77;;;3.10;99.90;;;;;;4982792;28;20043;-86
2022/04/09 05:20:12;;;;;;;5.18;1.52;;;3.30;99.90;;;;;;4965961;28;20249;-86
2022/04/09 05:22:41;;;;;;;7.10;0.60;;;3.30;99.90;;;;;;4980520;28;20058;-85
2022/04/09 05:25:07;;;;;;;5.93;0.88;;;3.30;99.90;;;;;;4962749;28;20100;-86
2022/04/09 05:27:33;;;;;;;8.18;0.52;;;3.20;99.90;;;;;;4970264;28;20046;-86
2022/04/09 05:29:58;;;;;;;12.45;1.10;;;3.30;99.90;;;;;;4985477;28;20469;-87
2022/04/09 05:32:24;;;;;;;6.75;0.80;;;3.60;99.90;;;;;;4984305;28;20478;-86
2022/04/09 05:34:50;;;;;;;9.55;1.30;;;3.30;99.90;;;;;;4985390;28;20057;-87
2022/04/09 05:37:16;;;;;;;13.73;1.10;;;3.30;99.90;;;;;;4985528;28;20130;-83
2022/04/09 05:39:43;;;;;;;4.80;1.00;;;3.30;99.90;;;;;;4985843;28;20046;-87
2022/04/09 05:42:09;;;;;;;6.43;1.20;;;4.40;99.90;;;;;;4987491;28;20069;-84
2022/04/09 05:44:35;;;;;;;6.32;1.20;;;3.40;99.90;;;;;;4986835;28;20069;-80
2022/04/09 05:47:00;;;;;;;10.38;1.42;;;3.50;99.90;;;;;;4964823;28;20525;-87
2022/04/09 05:49:26;;;;;;;9.38;1.40;;;3.50;99.90;;;;;;4985276;28;20047;-86
2022/04/09 05:51:52;;;;;;;9.00;1.23;;;5.90;99.90;;;;;;4980753;28;20046;-87
2022/04/09 05:54:17;;;;;;;5.65;1.10;;;5.50;99.90;;;;;;4985102;28;20424;-87
2022/04/09 05:56:43;;;;;;;9.18;1.30;;;3.40;99.90;;;;;;4983943;28;20039;-82
2022/04/09 05:59:09;;;;;;;7.40;1.27;;;4.50;99.90;;;;;;4965285;28;20042;-81
2022/04/09 06:01:34;;;;;;;8.45;1.23;;;4.00;99.90;;;;;;4982041;28;20273;-84
2022/04/09 06:04:01;;;;;;;11.23;1.90;;;5.70;99.90;;;;;;4959357;28;20043;-89
2022/04/09 06:06:27;;;;;;;9.02;1.42;;;4.20;99.90;;;;;;4637063;28;9999743;-81
2022/04/09 06:08:53;;;;;;;8.05;1.13;;;2.50;99.90;;;;;;4983629;28;20053;-83
2022/04/09 06:11:19;;;;;;;13.38;1.42;;;3.70;99.90;;;;;;4978946;28;20041;-81
2022/04/09 06:13:44;;;;;;;12.75;1.35;;;4.10;99.90;;;;;;4976413;28;20035;-86
2022/04/09 06:16:11;;;;;;;19.38;2.50;;;5.60;99.90;;;;;;4975652;28;20050;-85
2022/04/09 06:18:38;;;;;;;9.52;1.42;;;4.10;99.90;;;;;;4981598;28;20143;-81
2022/04/09 06:21:09;;;;;;;9.95;1.50;;;4.30;99.90;;;;;;4973256;28;20565;-82
2022/04/09 06:23:35;;;;;;;12.40;1.90;;;4.30;99.90;;;;;;4978701;28;20086;-82
2022/04/09 06:26:01;;;;;;;11.52;1.52;;;4.30;99.90;;;;;;4980844;28;20147;-84
2022/04/09 06:28:27;;;;;;;16.13;2.67;;;4.30;99.90;;;;;;4982930;28;20078;-85
2022/04/09 06:30:53;;;;;;;9.98;1.35;;;4.50;99.90;;;;;;4981810;28;20123;-82
2022/04/09 06:33:20;;;;;;;10.07;1.45;;;4.50;99.90;;;;;;4958414;28;20047;-84
2022/04/09 06:35:47;;;;;;;8.60;1.45;;;4.50;99.90;;;;;;4978288;28;20077;-87
2022/04/09 06:38:13;;;;;;;9.77;1.40;;;4.90;99.90;;;;;;4979459;28;20144;-87
2022/04/09 06:40:39;;;;;;;10.35;1.40;;;4.70;99.90;;;;;;4976331;28;20713;-82
2022/04/09 06:43:05;;;;;;;9.40;1.30;;;4.60;99.90;;;;;;4980928;28;20046;-86
2022/04/09 06:45:31;;;;;;;7.15;1.15;;;4.90;99.90;;;;;;4976032;28;20150;-87
2022/04/09 06:47:56;;;;;;;13.73;1.50;;;4.80;99.90;;;;;;4979746;28;20130;-80
2022/04/09 06:50:22;;;;;;;7.47;1.65;;;4.90;99.90;;;;;;4976520;28;20047;-86
2022/04/09 06:52:48;;;;;;;10.60;1.38;;;5.00;99.90;;;;;;4979915;28;20053;-87
2022/04/09 06:55:13;;;;;;;13.18;1.70;;;5.10;99.90;;;;;;4963356;28;20157;-88
2022/04/09 06:57:41;;;;;;;12.77;1.98;;;5.10;99.90;;;;;;4974950;28;20518;-84
2022/04/09 07:00:11;;;;;;;7.63;0.98;;;5.10;99.90;;;;;;4976365;28;20072;-87
2022/04/09 07:02:38;;;;;;;11.35;1.67;;;5.30;99.90;;;;;;4976589;28;20038;-83
2022/04/09 07:05:04;;;;;;;7.18;1.20;;;5.60;99.90;;;;;;4978698;28;20279;-81
2022/04/09 07:07:29;;;;;;;6.00;1.02;;;5.50;99.90;;;;;;4980311;28;20516;-84
2022/04/09 07:10:09;;;;;;;8.50;0.85;;;5.80;99.90;;;;;;4977181;28;20042;-87
2022/04/09 07:12:36;;;;;;;8.45;1.23;;;5.70;99.90;;;;;;4977471;28;20046;-83
2022/04/09 07:15:03;;;;;;;6.75;0.90;;;6.20;99.90;;;;;;4978508;28;20042;-88
2022/04/09 07:17:29;;;;;;;25.52;2.50;;;6.00;99.90;;;;;;4964448;28;20125;-87
2022/04/09 07:20:04;;;;;;;10.02;1.35;;;4.80;99.90;;;;;;4975117;28;20061;-83
2022/04/09 07:22:31;;;;;;;9.13;0.95;;;5.90;99.90;;;;;;4981687;28;20542;-85
2022/04/09 07:24:56;;;;;;;14.10;1.48;;;5.80;99.90;;;;;;4963897;28;20074;-81
2022/04/09 07:27:43;;;;;;;6.22;0.90;;;5.80;99.90;;;;;;4982429;28;20073;-88
2022/04/09 07:30:16;;;;;;;11.40;0.90;;;5.90;99.90;;;;;;4980601;28;20099;-87
2022/04/09 07:32:43;;;;;;;10.07;0.93;;;7.30;99.90;;;;;;4983677;28;20521;-86
2022/04/09 07:35:10;;;;;;;6.15;1.00;;;5.90;99.90;;;;;;4983929;28;20050;-87
2022/04/09 07:37:44;;;;;;;8.52;0.80;;;5.80;99.90;;;;;;4981386;28;20511;-86
2022/04/09 07:40:12;;;;;;;9.53;1.20;;;4.50;99.90;;;;;;4978070;28;20443;-86
2022/04/09 07:42:38;;;;;;;13.40;1.30;;;5.90;99.90;;;;;;4987261;28;20293;-85
2022/04/09 07:45:05;;;;;;;10.88;2.05;;;5.80;99.90;;;;;;4978300;28;20042;-85
2022/04/09 07:47:30;;;;;;;10.90;0.93;;;6.00;99.90;;;;;;4985733;28;20572;-83
2022/04/09 07:49:56;;;;;;;12.20;2.00;;;6.00;99.90;;;;;;4977979;28;20069;-80
2022/04/09 07:52:22;;;;;;;10.35;1.55;;;5.90;99.90;;;;;;4964969;28;20904;-78
2022/04/09 07:54:48;;;;;;;15.95;2.97;;;8.00;99.90;;;;;;4983716;28;20034;-78
2022/04/09 07:57:13;;;;;;;22.48;3.08;;;6.10;99.90;;;;;;4987179;28;20058;-78
2022/04/09 07:59:39;;;;;;;10.63;1.98;;;6.20;99.90;;;;;;4979956;28;20453;-78
2022/04/09 08:02:05;;;;;;;10.18;1.52;;;6.40;99.90;;;;;;4988589;28;20056;-81
2022/04/09 08:04:30;;;;;;;8.40;1.33;;;6.40;99.90;;;;;;4987987;28;20034;-79
2022/04/09 08:06:56;;;;;;;14.15;1.83;;;6.50;99.90;;;;;;4986031;28;20038;-84
2022/04/09 08:09:22;;;;;;;11.25;1.70;;;6.50;99.90;;;;;;4986328;28;20038;-82
2022/04/09 08:11:47;;;;;;;8.77;1.55;;;6.20;99.90;;;;;;4986158;28;20537;-78
2022/04/09 08:14:13;;;;;;;7.47;1.83;;;7.20;99.90;;;;;;4982330;28;20686;-78
2022/04/09 08:16:39;;;;;;;9.63;1.65;;;6.40;99.90;;;;;;4963755;28;20052;-79
2022/04/09 08:19:05;;;;;;;12.90;1.60;;;6.70;99.90;;;;;;4982795;28;20114;-81
2022/04/09 08:21:30;;;;;;;10.88;1.48;;;6.70;99.90;;;;;;4985767;28;20077;-78
2022/04/09 08:23:56;;;;;;;8.80;1.02;;;6.70;99.90;;;;;;4969688;28;20096;-76
2022/04/09 08:26:22;;;;;;;6.63;1.02;;;6.80;99.90;;;;;;4963804;28;20046;-78
2022/04/09 08:28:47;;;;;;;3.25;0.70;;;7.70;99.90;;;;;;4978476;28;20170;-83
2022/04/09 08:31:13;;;;;;;9.73;1.50;;;6.80;99.90;;;;;;4963903;28;20055;-78
2022/04/09 08:33:40;;;;;;;10.77;1.75;;;6.80;99.90;;;;;;4985091;28;20042;-77
2022/04/09 08:36:06;;;;;;;15.35;3.60;;;6.80;99.90;;;;;;4981306;28;20059;-84
2022/04/09 08:38:31;;;;;;;11.35;1.00;;;6.70;99.90;;;;;;4982323;28;20050;-78
2022/04/09 08:41:00;;;;;;;14.82;2.13;;;6.90;99.90;;;;;;4969483;28;20130;-77
2022/04/09 08:43:26;;;;;;;9.95;1.30;;;7.00;99.90;;;;;;4970299;28;20054;-77
2022/04/09 08:45:51;;;;;;;14.63;1.55;;;7.00;99.90;;;;;;4979427;28;20117;-77
2022/04/09 08:48:20;;;;;;;5.47;1.35;;;7.20;99.90;;;;;;4987209;28;20034;-77
2022/04/09 08:50:46;;;;;;;9.45;1.45;;;7.10;99.90;;;;;;4986950;28;20053;-77
2022/04/09 08:53:13;;;;;;;8.30;1.45;;;7.10;99.90;;;;;;4986274;28;20050;-81
2022/04/09 08:55:40;;;;;;;9.10;2.20;;;7.30;99.90;;;;;;4980798;28;20553;-83
2022/04/09 08:58:06;;;;;;;7.53;1.33;;;7.40;99.90;;;;;;4970786;28;20041;-81
2022/04/09 09:00:33;;;;;;;13.80;2.30;;;8.30;99.90;;;;;;4971604;28;20057;-81
2022/04/09 09:03:02;;;;;;;16.55;1.75;;;7.10;99.90;;;;;;4978909;28;20120;-93
2022/04/09 09:05:40;;;;;;;17.65;2.40;;;8.30;99.90;;;;;;4984081;28;20482;-81
2022/04/09 09:08:07;;;;;;;15.45;2.80;;;5.10;99.90;;;;;;4965093;28;20126;-84
2022/04/09 09:10:34;;;;;;;8.32;0.93;;;6.70;99.90;;;;;;4965521;28;20043;-80
2022/04/09 09:13:11;;;;;;;9.07;1.15;;;8.50;99.90;;;;;;4987590;28;20042;-80
2022/04/09 09:15:53;;;;;;;7.00;1.08;;;6.60;99.90;;;;;;4980338;28;20101;-78
2022/04/09 09:18:26;;;;;;;8.57;1.42;;;6.50;99.90;;;;;;4984236;28;21373;-80
2022/04/09 09:20:56;;;;;;;9.27;1.23;;;6.30;99.90;;;;;;4986134;28;20050;-79
2022/04/09 09:23:31;;;;;;;5.45;0.93;;;6.10;99.90;;;;;;4980981;28;20558;-79
2022/04/09 09:25:58;;;;;;;6.38;0.75;;;5.90;99.90;;;;;;4983066;28;20675;-80
2022/04/09 09:28:29;;;;;;;8.10;0.82;;;5.90;99.90;;;;;;4982054;28;20038;-79
2022/04/09 09:30:56;;;;;;;8.02;1.40;;;6.00;99.90;;;;;;4983556;28;20050;-80
2022/04/09 09:33:23;;;;;;;12.93;1.30;;;6.10;99.90;;;;;;4982426;28;20075;-82
2022/04/09 09:35:49;;;;;;;10.27;1.88;;;6.20;99.90;;;;;;4985002;28;20047;-79
2022/04/09 09:38:34;;;;;;;13.07;1.35;;;6.10;99.90;;;;;;4981294;28;20138;-86
2022/04/09 09:41:01;;;;;;;6.97;1.65;;;6.20;99.90;;;;;;4984937;28;20053;-81
2022/04/09 09:43:28;;;;;;;10.93;1.75;;;6.90;99.90;;;;;;4979255;28;20176;-81
2022/04/09 09:45:54;;;;;;;11.05;2.47;;;7.10;99.90;;;;;;4978471;28;20044;-82
2022/04/09 09:48:24;;;;;;;10.30;1.52;;;7.20;99.90;;;;;;4984520;28;20108;-82
2022/04/09 09:50:55;;;;;;;4.60;0.70;;;7.20;99.90;;;;;;4984336;28;20042;-83
2022/04/09 09:53:32;;;;;;;5.32;0.65;;;7.00;99.90;;;;;;4978836;28;20671;-82
2022/04/09 09:55:59;;;;;;;5.72;0.68;;;6.60;99.90;;;;;;4975654;28;20046;-86
2022/04/09 09:58:26;;;;;;;9.15;0.63;;;6.40;99.90;;;;;;4967885;28;20073;-83
2022/04/09 10:00:57;;;;;;;3.22;0.30;;;6.40;99.90;;;;;;4984952;28;20044;-82
2022/04/09 10:03:23;;;;;;;3.08;0.10;;;6.50;99.90;;;;;;4979255;28;20050;-81
2022/04/09 10:05:50;;;;;;;3.53;0.28;;;7.40;99.90;;;;;;4974581;28;20134;-81
2022/04/09 10:08:17;;;;;;;3.17;0.28;;;7.90;99.90;;;;;;4984256;28;20053;-84
2022/04/09 10:10:48;;;;;;;4.18;0.38;;;6.40;99.90;;;;;;4969882;28;20138;-82
2022/04/09 10:13:18;;;;;;;2.20;0.22;;;6.40;99.90;;;;;;4981622;28;20686;-83
2022/04/09 10:15:50;;;;;;;1.35;0.20;;;6.50;99.90;;;;;;4976095;28;20052;-82
2022/04/09 10:18:23;;;;;;;4.60;0.47;;;5.60;99.90;;;;;;4971833;28;20045;-85
2022/04/09 10:20:56;;;;;;;2.65;0.50;;;6.70;99.90;;;;;;4964517;28;20046;-84
2022/04/09 10:23:23;;;;;;;6.18;0.60;;;6.80;99.90;;;;;;4978090;28;20054;-82
2022/04/09 10:25:53;;;;;;;5.45;0.65;;;6.90;99.90;;;;;;4975849;28;20041;-82
2022/04/09 10:28:37;;;;;;;5.55;0.57;;;7.60;99.90;;;;;;4976480;28;20042;-83
2022/04/09 10:31:22;;;;;;;3.00;0.50;;;7.10;99.90;;;;;;4956120;28;20453;-85
2022/04/09 10:33:59;;;;;;;5.20;0.70;;;7.30;99.90;;;;;;4977930;28;20100;-81
2022/04/09 10:36:46;;;;;;;2.35;0.43;;;7.40;99.90;;;;;;4976632;28;20082;-83
2022/04/09 10:39:41;;;;;;;4.13;0.43;;;7.30;99.90;;;;;;4967691;28;20057;-82
2022/04/09 10:42:08;;;;;;;8.00;0.68;;;9.30;99.90;;;;;;4960943;28;20050;-83
2022/04/09 10:44:43;;;;;;;4.63;1.00;;;7.00;99.90;;;;;;4984037;28;20931;-86
2022/04/09 10:47:13;;;;;;;11.05;0.70;;;7.20;99.90;;;;;;4959814;28;20043;-85
2022/04/09 10:49:39;;;;;;;3.95;0.60;;;7.20;99.90;;;;;;4962208;28;20055;-84
2022/04/09 10:52:14;;;;;;;4.05;0.82;;;7.20;99.90;;;;;;4979363;28;20053;-83
2022/04/09 10:55:12;;;;;;;6.70;1.00;;;7.20;99.90;;;;;;4977746;28;20038;-81
2022/04/09 10:57:46;;;;;;;8.10;0.80;;;7.20;99.90;;;;;;4621839;28;10001567;-80
2022/04/09 11:00:21;;;;;;;7.18;0.57;;;7.20;99.90;;;;;;4982674;28;20054;-79
2022/04/09 11:03:30;;;;;;;5.00;0.57;;;7.10;99.90;;;;;;4982389;28;20806;-79
2022/04/09 11:06:40;;;;;;;4.70;0.77;;;7.10;99.90;;;;;;4981040;28;20046;-80
2022/04/09 11:09:06;;;;;;;12.73;1.02;;;6.90;99.90;;;;;;4979214;28;20459;-80
2022/04/09 11:11:32;;;;;;;6.47;0.60;;;6.90;99.90;;;;;;4957234;28;20050;-80
2022/04/09 11:13:57;;;;;;;6.50;0.73;;;6.90;99.90;;;;;;4980326;28;20536;-81
2022/04/09 11:16:23;;;;;;;10.20;1.10;;;7.00;99.90;;;;;;4982751;28;20140;-81
2022/04/09 11:18:49;;;;;;;9.60;1.88;;;7.00;99.90;;;;;;4985395;28;20062;-81
2022/04/09 11:21:15;;;;;;;9.10;1.88;;;7.00;99.90;;;;;;4985173;28;20053;-81
2022/04/09 11:23:44;;;;;;;8.30;0.70;;;7.10;99.90;;;;;;4981594;28;20069;-81
2022/04/09 11:26:17;;;;;;;6.68;1.23;;;7.10;99.90;;;;;;4984688;28;20050;-79
2022/04/09 11:28:42;;;;;;;7.95;1.08;;;7.00;99.90;;;;;;4985809;28;20494;-80
2022/04/09 11:31:08;;;;;;;4.35;0.57;;;7.20;99.90;;;;;;4964751;28;20050;-80
2022/04/09 11:33:33;;;;;;;7.65;1.13;;;7.30;99.90;;;;;;4985490;28;20034;-80
2022/04/09 11:36:02;;;;;;;8.70;0.90;;;7.40;99.90;;;;;;4982420;28;20070;-80
2022/04/09 11:38:28;;;;;;;8.00;0.98;;;7.60;99.90;;;;;;4987356;28;20034;-80
2022/04/09 11:40:55;;;;;;;3.30;0.52;;;7.70;99.90;;;;;;4985867;28;21482;-80
2022/04/09 11:43:22;;;;;;;10.00;0.70;;;7.80;99.90;;;;;;4985627;28;20149;-79
2022/04/09 11:45:48;;;;;;;4.10;0.47;;;7.70;99.90;;;;;;4985097;28;20049;-79
2022/04/09 11:48:19;;;;;;;7.10;1.10;;;7.60;99.90;;;;;;4986303;28;20053;-80
2022/04/09 11:50:46;;;;;;;5.60;0.60;;;7.60;99.90;;;;;;4978801;28;20402;-79
2022/04/09 11:53:14;;;;;;;5.63;0.80;;;7.50;99.90;;;;;;4987578;28;20054;-80
2022/04/09 11:55:41;;;;;;;10.13;0.90;;;7.50;99.90;;;;;;4985981;28;20512;-78
2022/04/09 11:58:08;;;;;;;6.53;1.33;;;7.30;99.90;;;;;;4980249;28;20058;-78
2022/04/09 12:00:38;;;;;;;9.40;1.05;;;7.40;99.90;;;;;;4986722;28;20046;-79
2022/04/09 12:03:06;;;;;;;4.35;0.43;;;7.20;99.90;;;;;;4986844;28;20053;-79
2022/04/09 12:05:44;;;;;;;3.50;0.80;;;7.30;99.90;;;;;;4982661;28;20181;-79
2022/04/09 12:08:15;;;;;;;4.65;0.50;;;7.40;99.90;;;;;;4985293;28;20145;-80
2022/04/09 12:10:57;;;;;;;2.95;0.70;;;7.60;99.90;;;;;;4985005;28;20525;-79
2022/04/09 12:13:35;;;;;;;9.88;0.82;;;7.80;99.90;;;;;;4985204;28;20054;-79
2022/04/09 12:16:10;;;;;;;4.80;1.10;;;8.10;99.90;;;;;;4987403;28;20117;-83
2022/04/09 12:18:36;;;;;;;2.65;0.50;;;8.30;99.90;;;;;;4986515;28;20046;-81
2022/04/09 12:21:27;;;;;;;3.90;0.30;;;8.40;99.90;;;;;;4987081;28;20049;-80
2022/04/09 12:24:03;;;;;;;0.65;0.20;;;8.50;99.90;;;;;;4984639;28;20061;-80
2022/04/09 12:26:30;;;;;;;5.97;0.80;;;8.50;99.90;;;;;;4981618;28;20052;-80
2022/04/09 12:29:08;;;;;;;2.97;0.40;;;8.50;99.90;;;;;;4984445;28;20105;-79
2022/04/09 12:31:41;;;;;;;1.58;0.15;;;8.50;99.90;;;;;;4983947;28;20117;-78
2022/04/09 12:34:07;;;;;;;3.60;0.25;;;8.50;99.90;;;;;;4984656;28;20522;-79
2022/04/09 12:36:33;;;;;;;6.32;0.50;;;8.40;99.90;;;;;;4966607;28;20628;-81
2022/04/09 12:39:00;;;;;;;3.63;0.30;;;10.00;99.90;;;;;;4982506;28;20859;-80
2022/04/09 12:41:26;;;;;;;1.90;0.43;;;8.50;99.90;;;;;;4984514;28;20081;-79
2022/04/09 12:43:52;;;;;;;5.65;0.55;;;8.60;99.90;;;;;;4979096;28;20466;-79
2022/04/09 12:46:19;;;;;;;3.40;0.43;;;8.70;99.90;;;;;;4984945;28;20050;-81
2022/04/09 12:48:46;;;;;;;7.78;0.85;;;8.80;99.90;;;;;;4999947;28;20521;-78
2022/04/09 12:51:14;;;;;;;10.27;0.80;;;8.90;99.90;;;;;;4984002;28;20047;-80
2022/04/09 12:53:42;;;;;;;4.82;0.80;;;8.80;99.90;;;;;;4984707;28;20061;-78
2022/04/09 12:56:09;;;;;;;10.45;1.05;;;8.80;99.90;;;;;;4976237;28;20554;-78
2022/04/09 12:58:35;;;;;;;6.05;0.63;;;8.70;99.90;;;;;;4978969;28;20038;-80